Huvudsida
METAR-TAF:

METAR-TAF

Flygplatser :

Linköping, Sverige

Malmens flygplats

latitud: 58-24N, longitud: 015-31E, höjd: 93 m

Aktuellt väderrapport

Denna rapport gjordes för 33 minuter sedan, klockan 02:50 UTC
Vind 3 kt från ost
Temperatur -1°C
Fuktighet 100%
Tryck 998 hPa
Sikt 10 km eller mer

METAR: ESCF 190250Z AUTO 08003KT 9999 BKN003/// OVC006/// M01/M01 Q0998

Tid: 04:23 (03:23 UTC)

Väderprognos

Denna rapport gjordes för 9 timmar och 53 minuter sedan, klockan 17:30 UTC
Prognos gäller från 18 kl. 18 UTC till 18 kl. 21 UTC
Vind 2 kt varierande vindriktning
Sikt 10 km eller mer
Få moln på en höjd av 100 ft
Brutna moln på en höjd av 1500 ft
Sannolikhet 40%
från 18 kl. 18 UTC till 18 kl. 21 UTC
Sikt: 0400 m
på en höjd av 200 ft
underkyld dimma

TAF: ESCF 181730Z 1818/1821 VRB02KT 9999 FEW001 BKN015 PROB40 1818/1821 0400 FZFG VV002 RMK MIL

Aktuella väderrapporter och prognoser från 4000 flygplatser (METAR- och TAF-rapporter).

De tillgängliga stationerna syns som gula och röda prickar på kartan.

För musen över prickarna för att se namnen på stationerna.

Klicka sedan för att få väderrapporter och prognoser.

För att ändra kartan: Klicka på de gröna knapparna med ett svart kors på för att zooma in; den gröna knappen med ett streck på för att zooma ut; eller på de gröna pilarna för angränsande kartor.


METAR-TAF: